sensor_id;sensor_type;location;lat;lon;timestamp;temperature;humidity
23065;DHT22;17153;51.212;3.228;2022-07-10T00:00:58;21.60;93.50
23065;DHT22;17153;51.212;3.228;2022-07-10T00:03:24;21.60;93.40
23065;DHT22;17153;51.212;3.228;2022-07-10T00:05:49;21.60;93.50
23065;DHT22;17153;51.212;3.228;2022-07-10T00:08:15;21.60;93.50
23065;DHT22;17153;51.212;3.228;2022-07-10T00:10:40;21.60;93.50
23065;DHT22;17153;51.212;3.228;2022-07-10T00:13:06;21.50;93.50
23065;DHT22;17153;51.212;3.228;2022-07-10T00:15:31;21.50;93.50
23065;DHT22;17153;51.212;3.228;2022-07-10T00:17:57;21.50;93.50
23065;DHT22;17153;51.212;3.228;2022-07-10T00:20:23;21.50;93.40
23065;DHT22;17153;51.212;3.228;2022-07-10T00:22:48;21.50;93.50
23065;DHT22;17153;51.212;3.228;2022-07-10T00:25:14;21.50;93.50
23065;DHT22;17153;51.212;3.228;2022-07-10T00:27:40;21.50;93.50
23065;DHT22;17153;51.212;3.228;2022-07-10T00:30:07;21.50;93.50
23065;DHT22;17153;51.212;3.228;2022-07-10T00:32:32;21.50;93.50
23065;DHT22;17153;51.212;3.228;2022-07-10T00:34:58;21.50;93.50
23065;DHT22;17153;51.212;3.228;2022-07-10T00:37:24;21.40;93.50
23065;DHT22;17153;51.212;3.228;2022-07-10T00:39:49;21.40;93.50
23065;DHT22;17153;51.212;3.228;2022-07-10T00:42:15;21.40;93.50
23065;DHT22;17153;51.212;3.228;2022-07-10T00:44:41;21.40;93.40
23065;DHT22;17153;51.212;3.228;2022-07-10T00:47:08;21.40;93.40
23065;DHT22;17153;51.212;3.228;2022-07-10T00:49:34;21.40;93.40
23065;DHT22;17153;51.212;3.228;2022-07-10T00:52:00;21.40;93.40
23065;DHT22;17153;51.212;3.228;2022-07-10T00:54:27;21.40;93.80
23065;DHT22;17153;51.212;3.228;2022-07-10T00:56:53;21.40;93.50
23065;DHT22;17153;51.212;3.228;2022-07-10T00:59:19;21.30;93.30
23065;DHT22;17153;51.212;3.228;2022-07-10T01:01:45;21.30;93.40
23065;DHT22;17153;51.212;3.228;2022-07-10T01:04:10;21.30;93.50
23065;DHT22;17153;51.212;3.228;2022-07-10T01:06:36;21.30;93.40
23065;DHT22;17153;51.212;3.228;2022-07-10T01:09:02;21.30;93.40
23065;DHT22;17153;51.212;3.228;2022-07-10T01:11:30;21.30;93.40
23065;DHT22;17153;51.212;3.228;2022-07-10T01:13:56;21.20;93.40
23065;DHT22;17153;51.212;3.228;2022-07-10T01:16:22;21.20;93.40
23065;DHT22;17153;51.212;3.228;2022-07-10T01:18:48;21.30;93.40
23065;DHT22;17153;51.212;3.228;2022-07-10T01:21:27;21.20;93.40
23065;DHT22;17153;51.212;3.228;2022-07-10T01:23:53;21.20;93.40
23065;DHT22;17153;51.212;3.228;2022-07-10T01:26:19;21.10;93.30
23065;DHT22;17153;51.212;3.228;2022-07-10T01:28:47;21.20;93.40
23065;DHT22;17153;51.212;3.228;2022-07-10T01:31:13;21.20;93.30
23065;DHT22;17153;51.212;3.228;2022-07-10T01:33:39;21.10;93.20
23065;DHT22;17153;51.212;3.228;2022-07-10T01:36:05;21.10;93.20
23065;DHT22;17153;51.212;3.228;2022-07-10T01:38:31;21.20;93.30
23065;DHT22;17153;51.212;3.228;2022-07-10T01:40:57;21.20;93.20
23065;DHT22;17153;51.212;3.228;2022-07-10T01:43:22;21.10;93.00
23065;DHT22;17153;51.212;3.228;2022-07-10T01:45:48;21.10;93.20
23065;DHT22;17153;51.212;3.228;2022-07-10T01:48:14;21.10;93.30
23065;DHT22;17153;51.212;3.228;2022-07-10T01:50:40;21.00;93.30
23065;DHT22;17153;51.212;3.228;2022-07-10T01:53:05;21.00;93.30
23065;DHT22;17153;51.212;3.228;2022-07-10T01:55:31;21.00;93.40
23065;DHT22;17153;51.212;3.228;2022-07-10T01:57:58;21.00;93.40
23065;DHT22;17153;51.212;3.228;2022-07-10T02:00:23;21.00;93.50
23065;DHT22;17153;51.212;3.228;2022-07-10T02:02:49;21.00;93.50
23065;DHT22;17153;51.212;3.228;2022-07-10T02:05:33;21.00;93.60
23065;DHT22;17153;51.212;3.228;2022-07-10T02:07:59;21.00;93.70
23065;DHT22;17153;51.212;3.228;2022-07-10T02:10:25;21.00;93.70
23065;DHT22;17153;51.212;3.228;2022-07-10T02:12:50;21.00;93.70
23065;DHT22;17153;51.212;3.228;2022-07-10T02:15:16;20.90;93.70
23065;DHT22;17153;51.212;3.228;2022-07-10T02:17:41;20.90;93.60
23065;DHT22;17153;51.212;3.228;2022-07-10T02:20:07;20.90;93.60
23065;DHT22;17153;51.212;3.228;2022-07-10T02:22:35;20.90;93.60
23065;DHT22;17153;51.212;3.228;2022-07-10T02:25:00;20.90;93.60
23065;DHT22;17153;51.212;3.228;2022-07-10T02:27:27;20.90;93.60
23065;DHT22;17153;51.212;3.228;2022-07-10T02:29:53;20.90;93.60
23065;DHT22;17153;51.212;3.228;2022-07-10T02:32:18;20.90;93.70
23065;DHT22;17153;51.212;3.228;2022-07-10T02:34:44;20.90;93.70
23065;DHT22;17153;51.212;3.228;2022-07-10T02:37:09;20.90;93.70
23065;DHT22;17153;51.212;3.228;2022-07-10T02:39:35;20.90;93.80
23065;DHT22;17153;51.212;3.228;2022-07-10T02:42:01;20.80;93.80
23065;DHT22;17153;51.212;3.228;2022-07-10T02:44:27;20.80;93.90
23065;DHT22;17153;51.212;3.228;2022-07-10T02:46:54;20.70;94.00
23065;DHT22;17153;51.212;3.228;2022-07-10T02:49:20;20.70;94.10
23065;DHT22;17153;51.212;3.228;2022-07-10T02:51:45;20.60;94.20
23065;DHT22;17153;51.212;3.228;2022-07-10T02:54:11;20.60;94.30
23065;DHT22;17153;51.212;3.228;2022-07-10T02:56:36;20.50;94.40
23065;DHT22;17153;51.212;3.228;2022-07-10T02:59:02;20.50;94.40
23065;DHT22;17153;51.212;3.228;2022-07-10T03:01:28;20.50;94.40
23065;DHT22;17153;51.212;3.228;2022-07-10T03:03:53;20.50;94.50
23065;DHT22;17153;51.212;3.228;2022-07-10T03:06:19;20.50;94.60
23065;DHT22;17153;51.212;3.228;2022-07-10T03:08:45;20.40;94.70
23065;DHT22;17153;51.212;3.228;2022-07-10T03:11:10;20.30;94.80
23065;DHT22;17153;51.212;3.228;2022-07-10T03:13:36;20.30;94.90
23065;DHT22;17153;51.212;3.228;2022-07-10T03:16:01;20.20;94.90
23065;DHT22;17153;51.212;3.228;2022-07-10T03:18:28;20.10;95.00
23065;DHT22;17153;51.212;3.228;2022-07-10T03:20:53;20.00;95.10
23065;DHT22;17153;51.212;3.228;2022-07-10T03:23:19;20.00;95.20
23065;DHT22;17153;51.212;3.228;2022-07-10T03:25:45;19.90;95.20
23065;DHT22;17153;51.212;3.228;2022-07-10T03:28:10;19.90;95.20
23065;DHT22;17153;51.212;3.228;2022-07-10T03:30:36;19.90;95.30
23065;DHT22;17153;51.212;3.228;2022-07-10T03:33:01;19.90;95.30
23065;DHT22;17153;51.212;3.228;2022-07-10T03:35:29;19.90;95.20
23065;DHT22;17153;51.212;3.228;2022-07-10T03:37:57;19.90;95.30
23065;DHT22;17153;51.212;3.228;2022-07-10T03:40:22;19.90;95.40
23065;DHT22;17153;51.212;3.228;2022-07-10T03:42:48;19.90;95.20
23065;DHT22;17153;51.212;3.228;2022-07-10T03:45:13;19.90;95.20
23065;DHT22;17153;51.212;3.228;2022-07-10T03:47:39;19.80;95.20
23065;DHT22;17153;51.212;3.228;2022-07-10T03:50:05;19.80;95.20
23065;DHT22;17153;51.212;3.228;2022-07-10T03:52:30;19.80;95.20
23065;DHT22;17153;51.212;3.228;2022-07-10T03:54:56;19.80;95.30
23065;DHT22;17153;51.212;3.228;2022-07-10T03:57:22;19.80;95.30
23065;DHT22;17153;51.212;3.228;2022-07-10T04:00:06;19.70;95.30
23065;DHT22;17153;51.212;3.228;2022-07-10T04:02:31;19.70;95.30
23065;DHT22;17153;51.212;3.228;2022-07-10T04:04:57;19.70;95.40
23065;DHT22;17153;51.212;3.228;2022-07-10T04:16:02;19.80;95.40
23065;DHT22;17153;51.212;3.228;2022-07-10T04:18:27;19.90;95.30
23065;DHT22;17153;51.212;3.228;2022-07-10T04:20:53;19.90;95.20
23065;DHT22;17153;51.212;3.228;2022-07-10T04:23:18;20.00;95.10
23065;DHT22;17153;51.212;3.228;2022-07-10T04:25:44;20.00;95.10
23065;DHT22;17153;51.212;3.228;2022-07-10T04:28:10;20.00;95.10
23065;DHT22;17153;51.212;3.228;2022-07-10T04:30:36;20.00;95.20
23065;DHT22;17153;51.212;3.228;2022-07-10T04:33:01;20.00;95.20
23065;DHT22;17153;51.212;3.228;2022-07-10T04:35:27;19.90;95.10
23065;DHT22;17153;51.212;3.228;2022-07-10T04:37:52;20.00;95.20
23065;DHT22;17153;51.212;3.228;2022-07-10T04:40:18;20.00;95.10
23065;DHT22;17153;51.212;3.228;2022-07-10T04:42:43;20.00;95.10
23065;DHT22;17153;51.212;3.228;2022-07-10T04:45:09;19.90;95.20
23065;DHT22;17153;51.212;3.228;2022-07-10T04:47:34;19.90;95.30
23065;DHT22;17153;51.212;3.228;2022-07-10T04:50:00;19.90;95.20
23065;DHT22;17153;51.212;3.228;2022-07-10T04:52:26;19.90;95.20
23065;DHT22;17153;51.212;3.228;2022-07-10T04:54:51;19.80;95.20
23065;DHT22;17153;51.212;3.228;2022-07-10T04:57:17;19.80;95.20
23065;DHT22;17153;51.212;3.228;2022-07-10T04:59:43;19.80;95.30
23065;DHT22;17153;51.212;3.228;2022-07-10T05:02:08;19.80;95.40
23065;DHT22;17153;51.212;3.228;2022-07-10T05:04:34;19.80;95.50
23065;DHT22;17153;51.212;3.228;2022-07-10T05:06:59;19.80;95.40
23065;DHT22;17153;51.212;3.228;2022-07-10T05:09:27;19.80;95.40
23065;DHT22;17153;51.212;3.228;2022-07-10T05:11:59;19.80;95.30
23065;DHT22;17153;51.212;3.228;2022-07-10T05:14:25;19.80;95.30
23065;DHT22;17153;51.212;3.228;2022-07-10T05:16:51;19.80;95.40
23065;DHT22;17153;51.212;3.228;2022-07-10T05:19:16;19.80;95.40
23065;DHT22;17153;51.212;3.228;2022-07-10T05:21:42;19.80;95.40
23065;DHT22;17153;51.212;3.228;2022-07-10T05:24:07;19.80;95.30
23065;DHT22;17153;51.212;3.228;2022-07-10T05:26:33;19.80;95.20
23065;DHT22;17153;51.212;3.228;2022-07-10T05:28:59;19.80;95.20
23065;DHT22;17153;51.212;3.228;2022-07-10T05:31:24;19.90;95.20
23065;DHT22;17153;51.212;3.228;2022-07-10T05:33:50;19.90;95.20
23065;DHT22;17153;51.212;3.228;2022-07-10T05:36:16;19.90;95.00
23065;DHT22;17153;51.212;3.228;2022-07-10T05:38:41;19.90;95.00
23065;DHT22;17153;51.212;3.228;2022-07-10T05:41:07;19.90;95.00
23065;DHT22;17153;51.212;3.228;2022-07-10T05:43:32;19.90;94.90
23065;DHT22;17153;51.212;3.228;2022-07-10T05:45:58;20.00;94.80
23065;DHT22;17153;51.212;3.228;2022-07-10T05:48:23;20.00;94.80
23065;DHT22;17153;51.212;3.228;2022-07-10T05:50:50;20.00;94.80
23065;DHT22;17153;51.212;3.228;2022-07-10T05:53:16;20.00;94.80
23065;DHT22;17153;51.212;3.228;2022-07-10T05:55:46;20.00;95.20
23065;DHT22;17153;51.212;3.228;2022-07-10T05:58:11;20.00;95.00
23065;DHT22;17153;51.212;3.228;2022-07-10T06:00:37;20.00;95.00
23065;DHT22;17153;51.212;3.228;2022-07-10T06:03:03;20.00;94.80
23065;DHT22;17153;51.212;3.228;2022-07-10T06:05:28;20.10;94.90
23065;DHT22;17153;51.212;3.228;2022-07-10T06:07:54;20.10;94.90
23065;DHT22;17153;51.212;3.228;2022-07-10T06:10:19;20.10;94.90
23065;DHT22;17153;51.212;3.228;2022-07-10T06:12:45;20.20;94.90
23065;DHT22;17153;51.212;3.228;2022-07-10T06:15:10;20.20;94.90
23065;DHT22;17153;51.212;3.228;2022-07-10T06:17:36;20.30;94.80
23065;DHT22;17153;51.212;3.228;2022-07-10T06:20:02;20.30;94.60
23065;DHT22;17153;51.212;3.228;2022-07-10T06:22:28;20.40;94.60
23065;DHT22;17153;51.212;3.228;2022-07-10T06:25:06;20.40;94.90
23065;DHT22;17153;51.212;3.228;2022-07-10T06:27:32;20.40;94.30
23065;DHT22;17153;51.212;3.228;2022-07-10T06:29:58;20.50;94.40
23065;DHT22;17153;51.212;3.228;2022-07-10T06:32:23;20.50;94.40
23065;DHT22;17153;51.212;3.228;2022-07-10T06:34:53;20.60;94.40
23065;DHT22;17153;51.212;3.228;2022-07-10T06:37:19;20.50;94.20
23065;DHT22;17153;51.212;3.228;2022-07-10T06:39:45;20.60;94.50
23065;DHT22;17153;51.212;3.228;2022-07-10T06:42:11;20.60;94.10
23065;DHT22;17153;51.212;3.228;2022-07-10T06:44:37;20.60;94.20
23065;DHT22;17153;51.212;3.228;2022-07-10T06:47:03;20.60;94.30
23065;DHT22;17153;51.212;3.228;2022-07-10T06:49:47;20.60;94.30
23065;DHT22;17153;51.212;3.228;2022-07-10T06:52:13;20.60;94.10
23065;DHT22;17153;51.212;3.228;2022-07-10T06:54:39;20.60;93.90
23065;DHT22;17153;51.212;3.228;2022-07-10T06:57:05;20.60;93.80
23065;DHT22;17153;51.212;3.228;2022-07-10T06:59:31;20.70;94.00
23065;DHT22;17153;51.212;3.228;2022-07-10T07:01:58;20.80;93.90
23065;DHT22;17153;51.212;3.228;2022-07-10T07:04:25;20.80;93.70
23065;DHT22;17153;51.212;3.228;2022-07-10T07:06:50;20.90;93.60
23065;DHT22;17153;51.212;3.228;2022-07-10T07:09:16;20.90;94.10
23065;DHT22;17153;51.212;3.228;2022-07-10T07:11:42;21.00;93.80
23065;DHT22;17153;51.212;3.228;2022-07-10T07:14:07;20.90;93.70
23065;DHT22;17153;51.212;3.228;2022-07-10T07:16:33;21.00;93.70
23065;DHT22;17153;51.212;3.228;2022-07-10T07:19:08;21.10;93.60
23065;DHT22;17153;51.212;3.228;2022-07-10T07:21:35;21.10;93.50
23065;DHT22;17153;51.212;3.228;2022-07-10T07:24:19;21.00;93.50
23065;DHT22;17153;51.212;3.228;2022-07-10T07:26:45;21.00;93.50
23065;DHT22;17153;51.212;3.228;2022-07-10T07:29:13;21.00;93.60
23065;DHT22;17153;51.212;3.228;2022-07-10T07:31:38;21.10;93.70
23065;DHT22;17153;51.212;3.228;2022-07-10T07:34:04;21.20;93.50
23065;DHT22;17153;51.212;3.228;2022-07-10T07:36:31;21.20;93.20
23065;DHT22;17153;51.212;3.228;2022-07-10T07:38:57;21.30;93.20
23065;DHT22;17153;51.212;3.228;2022-07-10T07:41:23;21.30;93.30
23065;DHT22;17153;51.212;3.228;2022-07-10T07:43:48;21.30;93.30
23065;DHT22;17153;51.212;3.228;2022-07-10T07:46:14;21.40;93.30
23065;DHT22;17153;51.212;3.228;2022-07-10T07:48:40;21.40;93.20
23065;DHT22;17153;51.212;3.228;2022-07-10T07:51:06;21.40;93.10
23065;DHT22;17153;51.212;3.228;2022-07-10T07:53:31;21.30;93.10
23065;DHT22;17153;51.212;3.228;2022-07-10T07:55:57;21.40;93.20
23065;DHT22;17153;51.212;3.228;2022-07-10T07:58:23;21.50;93.10
23065;DHT22;17153;51.212;3.228;2022-07-10T08:00:49;21.60;93.00
23065;DHT22;17153;51.212;3.228;2022-07-10T08:03:14;21.60;93.00
23065;DHT22;17153;51.212;3.228;2022-07-10T08:05:41;21.70;93.20
23065;DHT22;17153;51.212;3.228;2022-07-10T08:08:06;21.70;93.00
23065;DHT22;17153;51.212;3.228;2022-07-10T08:10:34;21.70;93.00
23065;DHT22;17153;51.212;3.228;2022-07-10T08:13:00;21.80;93.10
23065;DHT22;17153;51.212;3.228;2022-07-10T08:15:28;21.90;92.70
23065;DHT22;17153;51.212;3.228;2022-07-10T08:17:54;22.10;92.70
23065;DHT22;17153;51.212;3.228;2022-07-10T08:20:23;22.10;92.60
23065;DHT22;17153;51.212;3.228;2022-07-10T08:22:50;22.20;92.60
23065;DHT22;17153;51.212;3.228;2022-07-10T08:25:16;22.30;92.40
23065;DHT22;17153;51.212;3.228;2022-07-10T08:27:42;22.40;92.20
23065;DHT22;17153;51.212;3.228;2022-07-10T08:30:08;22.40;91.90
23065;DHT22;17153;51.212;3.228;2022-07-10T08:32:34;22.50;91.90
23065;DHT22;17153;51.212;3.228;2022-07-10T08:35:00;22.60;91.80
23065;DHT22;17153;51.212;3.228;2022-07-10T08:37:27;22.60;91.60
23065;DHT22;17153;51.212;3.228;2022-07-10T08:39:53;22.70;91.60
23065;DHT22;17153;51.212;3.228;2022-07-10T08:42:20;22.80;91.30
23065;DHT22;17153;51.212;3.228;2022-07-10T08:44:46;22.90;91.40
23065;DHT22;17153;51.212;3.228;2022-07-10T08:47:12;23.00;91.30
23065;DHT22;17153;51.212;3.228;2022-07-10T08:49:47;23.00;91.10
23065;DHT22;17153;51.212;3.228;2022-07-10T08:57:47;23.20;90.90
23065;DHT22;17153;51.212;3.228;2022-07-10T09:00:14;23.40;90.80
23065;DHT22;17153;51.212;3.228;2022-07-10T09:02:39;23.50;90.80
23065;DHT22;17153;51.212;3.228;2022-07-10T09:05:05;23.60;90.70
23065;DHT22;17153;51.212;3.228;2022-07-10T09:07:36;23.70;90.80
23065;DHT22;17153;51.212;3.228;2022-07-10T09:10:06;23.80;90.50
23065;DHT22;17153;51.212;3.228;2022-07-10T09:12:48;23.90;90.50
23065;DHT22;17153;51.212;3.228;2022-07-10T09:15:14;24.10;89.80
23065;DHT22;17153;51.212;3.228;2022-07-10T09:20:37;24.30;89.10
23065;DHT22;17153;51.212;3.228;2022-07-10T09:23:19;24.40;88.90
23065;DHT22;17153;51.212;3.228;2022-07-10T09:25:48;24.50;88.50
23065;DHT22;17153;51.212;3.228;2022-07-10T09:28:16;24.50;88.70
23065;DHT22;17153;51.212;3.228;2022-07-10T09:30:42;24.50;88.90
23065;DHT22;17153;51.212;3.228;2022-07-10T09:33:14;24.60;88.70
23065;DHT22;17153;51.212;3.228;2022-07-10T09:35:53;24.70;88.90
23065;DHT22;17153;51.212;3.228;2022-07-10T09:41:23;24.60;87.80
23065;DHT22;17153;51.212;3.228;2022-07-10T09:43:56;24.80;87.30
23065;DHT22;17153;51.212;3.228;2022-07-10T09:46:23;24.90;87.20
23065;DHT22;17153;51.212;3.228;2022-07-10T09:49:00;24.90;87.40
23065;DHT22;17153;51.212;3.228;2022-07-10T09:51:26;24.90;87.40
23065;DHT22;17153;51.212;3.228;2022-07-10T09:53:54;25.00;87.10
23065;DHT22;17153;51.212;3.228;2022-07-10T09:56:20;25.20;87.20
23065;DHT22;17153;51.212;3.228;2022-07-10T09:58:45;25.30;86.60
23065;DHT22;17153;51.212;3.228;2022-07-10T10:01:16;25.30;86.90
23065;DHT22;17153;51.212;3.228;2022-07-10T10:03:42;25.30;87.00
23065;DHT22;17153;51.212;3.228;2022-07-10T10:06:14;25.40;86.90
23065;DHT22;17153;51.212;3.228;2022-07-10T10:11:21;25.50;86.50
23065;DHT22;17153;51.212;3.228;2022-07-10T10:13:48;25.50;86.70
23065;DHT22;17153;51.212;3.228;2022-07-10T10:16:14;25.50;87.00
23065;DHT22;17153;51.212;3.228;2022-07-10T10:18:43;25.60;86.70
23065;DHT22;17153;51.212;3.228;2022-07-10T10:21:28;25.70;86.00
23065;DHT22;17153;51.212;3.228;2022-07-10T10:23:54;25.80;85.70
23065;DHT22;17153;51.212;3.228;2022-07-10T10:26:23;25.70;85.60
23065;DHT22;17153;51.212;3.228;2022-07-10T10:28:51;25.80;86.30
23065;DHT22;17153;51.212;3.228;2022-07-10T10:31:20;25.80;85.80
23065;DHT22;17153;51.212;3.228;2022-07-10T10:33:46;25.70;85.50
23065;DHT22;17153;51.212;3.228;2022-07-10T10:36:14;25.80;85.60
23065;DHT22;17153;51.212;3.228;2022-07-10T10:46:55;26.10;85.60
23065;DHT22;17153;51.212;3.228;2022-07-10T10:49:20;26.20;85.20
23065;DHT22;17153;51.212;3.228;2022-07-10T10:54:27;26.50;83.80
23065;DHT22;17153;51.212;3.228;2022-07-10T10:57:12;26.60;84.00
23065;DHT22;17153;51.212;3.228;2022-07-10T10:59:51;26.70;83.20
23065;DHT22;17153;51.212;3.228;2022-07-10T11:02:35;26.90;83.40
23065;DHT22;17153;51.212;3.228;2022-07-10T11:08:34;27.20;81.80
23065;DHT22;17153;51.212;3.228;2022-07-10T11:10:38;27.30;81.50
23065;DHT22;17153;51.212;3.228;2022-07-10T11:13:08;27.40;81.80
23065;DHT22;17153;51.212;3.228;2022-07-10T11:15:37;27.50;81.20
23065;DHT22;17153;51.212;3.228;2022-07-10T11:20:32;27.80;80.10
23065;DHT22;17153;51.212;3.228;2022-07-10T11:23:06;27.90;79.90
23065;DHT22;17153;51.212;3.228;2022-07-10T11:28:10;28.10;78.40
23065;DHT22;17153;51.212;3.228;2022-07-10T11:33:09;28.30;76.30
23065;DHT22;17153;51.212;3.228;2022-07-10T11:35:34;28.40;76.50
23065;DHT22;17153;51.212;3.228;2022-07-10T11:38:00;28.50;76.40
23065;DHT22;17153;51.212;3.228;2022-07-10T11:40:26;28.50;77.00
23065;DHT22;17153;51.212;3.228;2022-07-10T11:42:52;28.60;76.60
23065;DHT22;17153;51.212;3.228;2022-07-10T11:47:47;28.90;76.40
23065;DHT22;17153;51.212;3.228;2022-07-10T11:50:13;29.00;76.80
23065;DHT22;17153;51.212;3.228;2022-07-10T11:52:38;29.00;76.30
23065;DHT22;17153;51.212;3.228;2022-07-10T11:55:16;29.10;76.00
23065;DHT22;17153;51.212;3.228;2022-07-10T11:57:43;29.30;76.30
23065;DHT22;17153;51.212;3.228;2022-07-10T12:00:22;29.20;75.40
23065;DHT22;17153;51.212;3.228;2022-07-10T12:02:49;29.40;74.90
23065;DHT22;17153;51.212;3.228;2022-07-10T12:05:34;29.50;75.10
23065;DHT22;17153;51.212;3.228;2022-07-10T12:07:59;29.50;75.70
23065;DHT22;17153;51.212;3.228;2022-07-10T12:10:26;29.50;75.70
23065;DHT22;17153;51.212;3.228;2022-07-10T12:12:52;29.60;74.30
23065;DHT22;17153;51.212;3.228;2022-07-10T12:15:30;29.70;74.20
23065;DHT22;17153;51.212;3.228;2022-07-10T12:17:56;29.60;74.00
23065;DHT22;17153;51.212;3.228;2022-07-10T12:20:29;29.60;73.60
23065;DHT22;17153;51.212;3.228;2022-07-10T12:23:00;29.70;73.20
23065;DHT22;17153;51.212;3.228;2022-07-10T12:37:46;30.00;72.00
23065;DHT22;17153;51.212;3.228;2022-07-10T12:43:03;29.90;72.50
23065;DHT22;17153;51.212;3.228;2022-07-10T12:45:29;30.00;72.40
23065;DHT22;17153;51.212;3.228;2022-07-10T12:47:55;30.00;72.30
23065;DHT22;17153;51.212;3.228;2022-07-10T12:50:20;30.00;72.10
23065;DHT22;17153;51.212;3.228;2022-07-10T12:52:48;29.80;72.20
23065;DHT22;17153;51.212;3.228;2022-07-10T12:55:20;29.90;72.00
23065;DHT22;17153;51.212;3.228;2022-07-10T13:00:19;30.00;71.40
23065;DHT22;17153;51.212;3.228;2022-07-10T13:02:46;30.10;71.30
23065;DHT22;17153;51.212;3.228;2022-07-10T13:05:25;30.00;71.00
23065;DHT22;17153;51.212;3.228;2022-07-10T13:07:50;29.90;70.60
23065;DHT22;17153;51.212;3.228;2022-07-10T13:10:16;29.90;70.30
23065;DHT22;17153;51.212;3.228;2022-07-10T13:12:41;30.00;70.10
23065;DHT22;17153;51.212;3.228;2022-07-10T13:15:07;30.00;70.40
23065;DHT22;17153;51.212;3.228;2022-07-10T13:17:33;30.00;70.40
23065;DHT22;17153;51.212;3.228;2022-07-10T13:19:59;29.90;70.40
23065;DHT22;17153;51.212;3.228;2022-07-10T13:22:29;30.00;70.10
23065;DHT22;17153;51.212;3.228;2022-07-10T13:30:57;29.80;70.20
23065;DHT22;17153;51.212;3.228;2022-07-10T13:39:17;29.60;70.90
23065;DHT22;17153;51.212;3.228;2022-07-10T13:41:42;29.70;71.10
23065;DHT22;17153;51.212;3.228;2022-07-10T13:44:08;29.60;70.90
23065;DHT22;17153;51.212;3.228;2022-07-10T13:46:33;29.70;70.00
23065;DHT22;17153;51.212;3.228;2022-07-10T13:48:59;29.60;70.30
23065;DHT22;17153;51.212;3.228;2022-07-10T13:51:25;29.60;70.30
23065;DHT22;17153;51.212;3.228;2022-07-10T13:53:50;29.40;70.90
23065;DHT22;17153;51.212;3.228;2022-07-10T13:56:16;29.60;71.20
23065;DHT22;17153;51.212;3.228;2022-07-10T13:58:42;29.70;70.40
23065;DHT22;17153;51.212;3.228;2022-07-10T14:01:08;29.70;70.10
23065;DHT22;17153;51.212;3.228;2022-07-10T14:03:33;29.60;70.20
23065;DHT22;17153;51.212;3.228;2022-07-10T14:05:59;29.60;70.20
23065;DHT22;17153;51.212;3.228;2022-07-10T14:08:24;29.70;70.40
23065;DHT22;17153;51.212;3.228;2022-07-10T14:10:51;29.70;70.50
23065;DHT22;17153;51.212;3.228;2022-07-10T14:13:16;29.70;70.10
23065;DHT22;17153;51.212;3.228;2022-07-10T14:15:42;29.70;70.40
23065;DHT22;17153;51.212;3.228;2022-07-10T14:18:10;29.80;70.30
23065;DHT22;17153;51.212;3.228;2022-07-10T14:20:35;29.80;70.30
23065;DHT22;17153;51.212;3.228;2022-07-10T14:23:19;29.80;70.20
23065;DHT22;17153;51.212;3.228;2022-07-10T14:25:45;29.80;70.00
23065;DHT22;17153;51.212;3.228;2022-07-10T14:28:11;29.80;71.50
23065;DHT22;17153;51.212;3.228;2022-07-10T14:30:40;29.60;71.00
23065;DHT22;17153;51.212;3.228;2022-07-10T14:33:06;29.60;71.50
23065;DHT22;17153;51.212;3.228;2022-07-10T14:38:05;29.70;71.60
23065;DHT22;17153;51.212;3.228;2022-07-10T14:40:30;29.70;71.80
23065;DHT22;17153;51.212;3.228;2022-07-10T14:42:56;29.70;72.00
23065;DHT22;17153;51.212;3.228;2022-07-10T14:45:22;29.70;72.30
23065;DHT22;17153;51.212;3.228;2022-07-10T14:47:51;29.70;72.50
23065;DHT22;17153;51.212;3.228;2022-07-10T14:50:16;29.60;72.70
23065;DHT22;17153;51.212;3.228;2022-07-10T14:52:45;29.60;72.90
23065;DHT22;17153;51.212;3.228;2022-07-10T14:55:11;29.50;72.90
23065;DHT22;17153;51.212;3.228;2022-07-10T14:57:37;29.40;72.60
23065;DHT22;17153;51.212;3.228;2022-07-10T15:00:03;29.30;72.90
23065;DHT22;17153;51.212;3.228;2022-07-10T15:02:28;29.40;73.10
23065;DHT22;17153;51.212;3.228;2022-07-10T15:04:54;29.40;72.90
23065;DHT22;17153;51.212;3.228;2022-07-10T15:07:19;29.30;73.00
23065;DHT22;17153;51.212;3.228;2022-07-10T15:09:45;29.30;73.60
23065;DHT22;17153;51.212;3.228;2022-07-10T15:12:11;29.20;73.40
23065;DHT22;17153;51.212;3.228;2022-07-10T15:14:36;29.20;73.30
23065;DHT22;17153;51.212;3.228;2022-07-10T15:17:02;29.10;73.70
23065;DHT22;17153;51.212;3.228;2022-07-10T15:19:29;29.00;73.80
23065;DHT22;17153;51.212;3.228;2022-07-10T15:21:58;29.00;73.90
23065;DHT22;17153;51.212;3.228;2022-07-10T15:24:24;29.00;73.90
23065;DHT22;17153;51.212;3.228;2022-07-10T15:26:49;29.00;73.90
23065;DHT22;17153;51.212;3.228;2022-07-10T15:29:16;29.00;73.70
23065;DHT22;17153;51.212;3.228;2022-07-10T15:31:42;28.90;73.80
23065;DHT22;17153;51.212;3.228;2022-07-10T15:34:08;28.90;73.40
23065;DHT22;17153;51.212;3.228;2022-07-10T15:36:34;28.90;73.80
23065;DHT22;17153;51.212;3.228;2022-07-10T15:39:00;28.80;73.90
23065;DHT22;17153;51.212;3.228;2022-07-10T15:41:26;28.90;74.30
23065;DHT22;17153;51.212;3.228;2022-07-10T15:43:52;28.80;74.10
23065;DHT22;17153;51.212;3.228;2022-07-10T15:46:17;28.90;74.10
23065;DHT22;17153;51.212;3.228;2022-07-10T15:48:43;28.90;73.90
23065;DHT22;17153;51.212;3.228;2022-07-10T15:51:09;28.80;74.10
23065;DHT22;17153;51.212;3.228;2022-07-10T15:53:34;28.80;74.10
23065;DHT22;17153;51.212;3.228;2022-07-10T15:56:00;28.70;74.40
23065;DHT22;17153;51.212;3.228;2022-07-10T16:04:38;28.50;74.50
23065;DHT22;17153;51.212;3.228;2022-07-10T16:07:06;28.50;74.50
23065;DHT22;17153;51.212;3.228;2022-07-10T16:09:33;28.30;74.60
23065;DHT22;17153;51.212;3.228;2022-07-10T16:11:59;28.20;75.00
23065;DHT22;17153;51.212;3.228;2022-07-10T16:14:25;28.20;74.80
23065;DHT22;17153;51.212;3.228;2022-07-10T16:16:50;28.20;75.10
23065;DHT22;17153;51.212;3.228;2022-07-10T16:19:17;28.20;75.10
23065;DHT22;17153;51.212;3.228;2022-07-10T16:21:43;28.20;75.70
23065;DHT22;17153;51.212;3.228;2022-07-10T16:24:09;28.30;75.20
23065;DHT22;17153;51.212;3.228;2022-07-10T16:26:34;28.40;74.70
23065;DHT22;17153;51.212;3.228;2022-07-10T16:29:01;28.40;74.60
23065;DHT22;17153;51.212;3.228;2022-07-10T16:31:26;28.50;74.80
23065;DHT22;17153;51.212;3.228;2022-07-10T16:33:52;28.40;74.60
23065;DHT22;17153;51.212;3.228;2022-07-10T16:36:18;28.50;74.40
23065;DHT22;17153;51.212;3.228;2022-07-10T16:38:45;28.50;74.10
23065;DHT22;17153;51.212;3.228;2022-07-10T16:41:11;28.30;74.30
23065;DHT22;17153;51.212;3.228;2022-07-10T16:43:37;28.20;74.70
23065;DHT22;17153;51.212;3.228;2022-07-10T16:46:03;28.00;75.00
23065;DHT22;17153;51.212;3.228;2022-07-10T16:48:39;28.10;75.10
23065;DHT22;17153;51.212;3.228;2022-07-10T16:54:25;28.10;75.40
23065;DHT22;17153;51.212;3.228;2022-07-10T16:59:32;27.90;75.50